sensor_id;sensor_type;location;lat;lon;timestamp;P1;durP1;ratioP1;P2;durP2;ratioP2
9848;SDS011;4963;51.444;6.528;2022-11-04T00:00:04;2.17;;;1.57;;
9848;SDS011;4963;51.444;6.528;2022-11-04T00:02:32;2.33;;;1.63;;
9848;SDS011;4963;51.444;6.528;2022-11-04T00:04:58;1.83;;;1.50;;
9848;SDS011;4963;51.444;6.528;2022-11-04T00:07:25;2.40;;;1.53;;
9848;SDS011;4963;51.444;6.528;2022-11-04T00:10:11;3.50;;;1.70;;
9848;SDS011;4963;51.444;6.528;2022-11-04T00:12:37;3.10;;;1.80;;
9848;SDS011;4963;51.444;6.528;2022-11-04T00:15:04;1.90;;;1.60;;
9848;SDS011;4963;51.444;6.528;2022-11-04T00:17:45;2.37;;;1.33;;
9848;SDS011;4963;51.444;6.528;2022-11-04T00:20:12;2.10;;;1.67;;
9848;SDS011;4963;51.444;6.528;2022-11-04T00:22:56;5.13;;;1.60;;
9848;SDS011;4963;51.444;6.528;2022-11-04T00:25:41;2.53;;;1.43;;
9848;SDS011;4963;51.444;6.528;2022-11-04T00:28:25;1.63;;;1.53;;
9848;SDS011;4963;51.444;6.528;2022-11-04T00:31:11;1.90;;;1.60;;
9848;SDS011;4963;51.444;6.528;2022-11-04T00:34:04;2.00;;;1.63;;
9848;SDS011;4963;51.444;6.528;2022-11-04T00:36:31;2.10;;;1.50;;
9848;SDS011;4963;51.444;6.528;2022-11-04T00:38:58;2.00;;;1.70;;
9848;SDS011;4963;51.444;6.528;2022-11-04T00:41:26;3.23;;;1.90;;
9848;SDS011;4963;51.444;6.528;2022-11-04T00:43:54;2.73;;;1.60;;
9848;SDS011;4963;51.444;6.528;2022-11-04T00:46:22;2.13;;;1.73;;
9848;SDS011;4963;51.444;6.528;2022-11-04T00:48:49;1.83;;;1.67;;
9848;SDS011;4963;51.444;6.528;2022-11-04T00:51:16;3.27;;;2.17;;
9848;SDS011;4963;51.444;6.528;2022-11-04T00:53:44;2.93;;;2.00;;
9848;SDS011;4963;51.444;6.528;2022-11-04T00:56:10;2.20;;;2.00;;
9848;SDS011;4963;51.444;6.528;2022-11-04T00:58:39;4.13;;;2.60;;
9848;SDS011;4963;51.444;6.528;2022-11-04T01:01:06;3.87;;;2.33;;
9848;SDS011;4963;51.444;6.528;2022-11-04T01:03:34;3.43;;;2.37;;
9848;SDS011;4963;51.444;6.528;2022-11-04T01:06:01;3.07;;;2.50;;
9848;SDS011;4963;51.444;6.528;2022-11-04T01:08:28;3.33;;;2.33;;
9848;SDS011;4963;51.444;6.528;2022-11-04T01:10:54;2.90;;;2.27;;
9848;SDS011;4963;51.444;6.528;2022-11-04T01:13:21;3.47;;;2.00;;
9848;SDS011;4963;51.444;6.528;2022-11-04T01:15:49;2.67;;;2.37;;
9848;SDS011;4963;51.444;6.528;2022-11-04T01:18:16;2.80;;;2.13;;
9848;SDS011;4963;51.444;6.528;2022-11-04T01:20:43;3.30;;;2.53;;
9848;SDS011;4963;51.444;6.528;2022-11-04T01:23:09;4.00;;;2.83;;
9848;SDS011;4963;51.444;6.528;2022-11-04T01:25:38;3.67;;;2.63;;
9848;SDS011;4963;51.444;6.528;2022-11-04T01:28:05;3.20;;;2.73;;
9848;SDS011;4963;51.444;6.528;2022-11-04T01:30:32;3.13;;;2.67;;
9848;SDS011;4963;51.444;6.528;2022-11-04T01:33:00;3.40;;;2.83;;
9848;SDS011;4963;51.444;6.528;2022-11-04T01:35:27;4.03;;;2.70;;
9848;SDS011;4963;51.444;6.528;2022-11-04T01:37:54;3.60;;;3.20;;
9848;SDS011;4963;51.444;6.528;2022-11-04T01:40:20;3.70;;;2.80;;
9848;SDS011;4963;51.444;6.528;2022-11-04T01:42:47;3.80;;;3.00;;
9848;SDS011;4963;51.444;6.528;2022-11-04T01:45:15;3.37;;;2.77;;
9848;SDS011;4963;51.444;6.528;2022-11-04T01:47:45;5.23;;;2.60;;
9848;SDS011;4963;51.444;6.528;2022-11-04T01:50:18;2.93;;;2.30;;
9848;SDS011;4963;51.444;6.528;2022-11-04T01:52:49;5.40;;;2.60;;
9848;SDS011;4963;51.444;6.528;2022-11-04T01:55:22;6.80;;;2.87;;
9848;SDS011;4963;51.444;6.528;2022-11-04T01:57:51;5.43;;;2.70;;
9848;SDS011;4963;51.444;6.528;2022-11-04T02:00:24;4.07;;;2.90;;
9848;SDS011;4963;51.444;6.528;2022-11-04T02:02:53;2.93;;;2.50;;
9848;SDS011;4963;51.444;6.528;2022-11-04T02:05:25;3.00;;;2.33;;
9848;SDS011;4963;51.444;6.528;2022-11-04T02:07:54;5.27;;;2.40;;
9848;SDS011;4963;51.444;6.528;2022-11-04T02:10:24;4.40;;;3.00;;
9848;SDS011;4963;51.444;6.528;2022-11-04T02:12:52;4.50;;;2.70;;
9848;SDS011;4963;51.444;6.528;2022-11-04T02:15:19;5.30;;;2.53;;
9848;SDS011;4963;51.444;6.528;2022-11-04T02:18:02;5.33;;;2.80;;
9848;SDS011;4963;51.444;6.528;2022-11-04T02:23:52;4.00;;;2.87;;
9848;SDS011;4963;51.444;6.528;2022-11-04T02:26:50;3.63;;;2.20;;
9848;SDS011;4963;51.444;6.528;2022-11-04T02:30:03;3.80;;;2.37;;
9848;SDS011;4963;51.444;6.528;2022-11-04T02:32:45;4.37;;;2.53;;
9848;SDS011;4963;51.444;6.528;2022-11-04T02:35:34;5.27;;;2.70;;
9848;SDS011;4963;51.444;6.528;2022-11-04T02:38:09;4.00;;;2.33;;
9848;SDS011;4963;51.444;6.528;2022-11-04T02:40:42;6.63;;;2.30;;
9848;SDS011;4963;51.444;6.528;2022-11-04T02:43:15;3.87;;;2.40;;
9848;SDS011;4963;51.444;6.528;2022-11-04T02:45:50;4.63;;;2.23;;
9848;SDS011;4963;51.444;6.528;2022-11-04T02:48:26;3.80;;;2.07;;
9848;SDS011;4963;51.444;6.528;2022-11-04T02:51:00;4.30;;;2.67;;
9848;SDS011;4963;51.444;6.528;2022-11-04T02:53:31;3.97;;;1.90;;
9848;SDS011;4963;51.444;6.528;2022-11-04T02:56:04;2.90;;;2.00;;
9848;SDS011;4963;51.444;6.528;2022-11-04T02:58:34;5.00;;;2.40;;
9848;SDS011;4963;51.444;6.528;2022-11-04T03:01:04;4.17;;;2.20;;
9848;SDS011;4963;51.444;6.528;2022-11-04T03:03:34;5.10;;;2.30;;
9848;SDS011;4963;51.444;6.528;2022-11-04T03:06:05;7.40;;;2.53;;
9848;SDS011;4963;51.444;6.528;2022-11-04T03:08:36;6.53;;;2.57;;
9848;SDS011;4963;51.444;6.528;2022-11-04T03:11:06;7.70;;;2.50;;
9848;SDS011;4963;51.444;6.528;2022-11-04T03:13:38;5.33;;;2.50;;
9848;SDS011;4963;51.444;6.528;2022-11-04T03:16:12;7.10;;;2.77;;
9848;SDS011;4963;51.444;6.528;2022-11-04T03:18:45;3.70;;;2.20;;
9848;SDS011;4963;51.444;6.528;2022-11-04T03:21:19;3.77;;;2.03;;
9848;SDS011;4963;51.444;6.528;2022-11-04T03:23:49;4.47;;;1.97;;
9848;SDS011;4963;51.444;6.528;2022-11-04T03:26:17;4.90;;;2.00;;
9848;SDS011;4963;51.444;6.528;2022-11-04T03:28:51;6.73;;;1.90;;
9848;SDS011;4963;51.444;6.528;2022-11-04T03:31:31;5.17;;;2.07;;
9848;SDS011;4963;51.444;6.528;2022-11-04T03:34:07;7.87;;;2.57;;
9848;SDS011;4963;51.444;6.528;2022-11-04T03:36:34;2.67;;;1.77;;
9848;SDS011;4963;51.444;6.528;2022-11-04T03:39:01;3.37;;;1.93;;
9848;SDS011;4963;51.444;6.528;2022-11-04T03:41:30;5.43;;;2.20;;
9848;SDS011;4963;51.444;6.528;2022-11-04T03:44:03;4.57;;;1.90;;
9848;SDS011;4963;51.444;6.528;2022-11-04T03:46:31;7.63;;;2.20;;
9848;SDS011;4963;51.444;6.528;2022-11-04T03:48:59;7.77;;;1.90;;
9848;SDS011;4963;51.444;6.528;2022-11-04T03:51:28;2.90;;;1.90;;
9848;SDS011;4963;51.444;6.528;2022-11-04T03:53:54;6.50;;;2.40;;
9848;SDS011;4963;51.444;6.528;2022-11-04T03:56:34;5.57;;;1.83;;
9848;SDS011;4963;51.444;6.528;2022-11-04T03:59:17;5.57;;;1.90;;
9848;SDS011;4963;51.444;6.528;2022-11-04T04:01:58;6.87;;;1.90;;
9848;SDS011;4963;51.444;6.528;2022-11-04T04:04:35;6.03;;;2.10;;
9848;SDS011;4963;51.444;6.528;2022-11-04T04:07:06;6.03;;;2.13;;
9848;SDS011;4963;51.444;6.528;2022-11-04T04:09:41;5.40;;;2.07;;
9848;SDS011;4963;51.444;6.528;2022-11-04T04:12:15;4.50;;;1.80;;
9848;SDS011;4963;51.444;6.528;2022-11-04T04:14:51;3.17;;;1.57;;
9848;SDS011;4963;51.444;6.528;2022-11-04T04:17:26;7.53;;;2.03;;
9848;SDS011;4963;51.444;6.528;2022-11-04T04:19:58;5.47;;;1.87;;
9848;SDS011;4963;51.444;6.528;2022-11-04T04:22:28;5.17;;;1.90;;
9848;SDS011;4963;51.444;6.528;2022-11-04T04:24:58;6.63;;;1.80;;
9848;SDS011;4963;51.444;6.528;2022-11-04T04:27:46;7.03;;;2.03;;
9848;SDS011;4963;51.444;6.528;2022-11-04T04:30:15;4.50;;;2.23;;
9848;SDS011;4963;51.444;6.528;2022-11-04T04:32:44;6.17;;;2.10;;
9848;SDS011;4963;51.444;6.528;2022-11-04T04:35:13;5.50;;;2.10;;
9848;SDS011;4963;51.444;6.528;2022-11-04T04:38:00;4.10;;;1.87;;
9848;SDS011;4963;51.444;6.528;2022-11-04T04:40:49;3.63;;;1.80;;
9848;SDS011;4963;51.444;6.528;2022-11-04T04:43:37;6.67;;;2.10;;
9848;SDS011;4963;51.444;6.528;2022-11-04T04:46:24;7.03;;;2.00;;
9848;SDS011;4963;51.444;6.528;2022-11-04T04:48:53;5.90;;;1.93;;
9848;SDS011;4963;51.444;6.528;2022-11-04T04:51:21;4.77;;;1.43;;
9848;SDS011;4963;51.444;6.528;2022-11-04T04:53:48;5.03;;;1.87;;
9848;SDS011;4963;51.444;6.528;2022-11-04T04:56:15;8.07;;;2.00;;
9848;SDS011;4963;51.444;6.528;2022-11-04T04:58:42;4.00;;;1.53;;
9848;SDS011;4963;51.444;6.528;2022-11-04T05:01:08;5.20;;;1.77;;
9848;SDS011;4963;51.444;6.528;2022-11-04T05:03:35;7.87;;;2.00;;
9848;SDS011;4963;51.444;6.528;2022-11-04T05:06:03;6.43;;;2.10;;
9848;SDS011;4963;51.444;6.528;2022-11-04T05:08:30;6.47;;;2.00;;
9848;SDS011;4963;51.444;6.528;2022-11-04T05:10:59;5.13;;;2.03;;
9848;SDS011;4963;51.444;6.528;2022-11-04T05:13:26;5.50;;;1.87;;
9848;SDS011;4963;51.444;6.528;2022-11-04T05:15:54;6.30;;;2.10;;
9848;SDS011;4963;51.444;6.528;2022-11-04T05:18:21;6.70;;;2.07;;
9848;SDS011;4963;51.444;6.528;2022-11-04T05:20:48;6.63;;;1.87;;
9848;SDS011;4963;51.444;6.528;2022-11-04T05:23:16;8.23;;;2.70;;
9848;SDS011;4963;51.444;6.528;2022-11-04T05:25:42;4.40;;;1.90;;
9848;SDS011;4963;51.444;6.528;2022-11-04T05:28:09;4.87;;;2.30;;
9848;SDS011;4963;51.444;6.528;2022-11-04T05:30:36;7.50;;;2.10;;
9848;SDS011;4963;51.444;6.528;2022-11-04T05:33:03;7.70;;;2.53;;
9848;SDS011;4963;51.444;6.528;2022-11-04T05:35:30;6.90;;;2.47;;
9848;SDS011;4963;51.444;6.528;2022-11-04T05:37:57;6.33;;;2.17;;
9848;SDS011;4963;51.444;6.528;2022-11-04T05:40:25;7.43;;;2.10;;
9848;SDS011;4963;51.444;6.528;2022-11-04T05:42:52;4.73;;;2.20;;
9848;SDS011;4963;51.444;6.528;2022-11-04T05:45:18;4.17;;;2.20;;
9848;SDS011;4963;51.444;6.528;2022-11-04T05:47:46;6.13;;;1.83;;
9848;SDS011;4963;51.444;6.528;2022-11-04T05:50:12;5.00;;;2.10;;
9848;SDS011;4963;51.444;6.528;2022-11-04T05:52:39;4.73;;;1.93;;
9848;SDS011;4963;51.444;6.528;2022-11-04T05:55:06;4.10;;;2.00;;
9848;SDS011;4963;51.444;6.528;2022-11-04T05:57:35;4.57;;;2.03;;
9848;SDS011;4963;51.444;6.528;2022-11-04T06:00:02;5.57;;;2.00;;
9848;SDS011;4963;51.444;6.528;2022-11-04T06:02:30;6.30;;;2.13;;
9848;SDS011;4963;51.444;6.528;2022-11-04T06:04:57;6.47;;;2.30;;
9848;SDS011;4963;51.444;6.528;2022-11-04T06:07:24;5.03;;;2.00;;
9848;SDS011;4963;51.444;6.528;2022-11-04T06:09:51;4.87;;;2.10;;
9848;SDS011;4963;51.444;6.528;2022-11-04T06:12:18;6.17;;;2.50;;
9848;SDS011;4963;51.444;6.528;2022-11-04T06:14:46;6.47;;;2.00;;
9848;SDS011;4963;51.444;6.528;2022-11-04T06:17:13;5.43;;;2.27;;
9848;SDS011;4963;51.444;6.528;2022-11-04T06:19:41;7.07;;;2.10;;
9848;SDS011;4963;51.444;6.528;2022-11-04T06:22:08;5.40;;;2.03;;
9848;SDS011;4963;51.444;6.528;2022-11-04T06:24:36;5.97;;;2.30;;
9848;SDS011;4963;51.444;6.528;2022-11-04T06:27:02;6.37;;;2.40;;
9848;SDS011;4963;51.444;6.528;2022-11-04T06:29:30;8.27;;;2.20;;
9848;SDS011;4963;51.444;6.528;2022-11-04T06:31:58;6.53;;;2.57;;
9848;SDS011;4963;51.444;6.528;2022-11-04T06:34:25;4.83;;;2.17;;
9848;SDS011;4963;51.444;6.528;2022-11-04T06:36:52;8.33;;;2.40;;
9848;SDS011;4963;51.444;6.528;2022-11-04T06:39:18;4.73;;;1.80;;
9848;SDS011;4963;51.444;6.528;2022-11-04T06:41:45;5.60;;;2.10;;
9848;SDS011;4963;51.444;6.528;2022-11-04T06:44:12;7.47;;;2.30;;
9848;SDS011;4963;51.444;6.528;2022-11-04T06:46:39;8.03;;;2.40;;
9848;SDS011;4963;51.444;6.528;2022-11-04T06:49:10;4.63;;;2.20;;
9848;SDS011;4963;51.444;6.528;2022-11-04T06:51:38;6.83;;;2.57;;
9848;SDS011;4963;51.444;6.528;2022-11-04T06:54:05;10.87;;;2.50;;
9848;SDS011;4963;51.444;6.528;2022-11-04T06:56:32;7.00;;;2.70;;
9848;SDS011;4963;51.444;6.528;2022-11-04T06:58:59;5.23;;;2.80;;
9848;SDS011;4963;51.444;6.528;2022-11-04T07:01:27;5.83;;;2.67;;
9848;SDS011;4963;51.444;6.528;2022-11-04T07:03:55;6.80;;;2.80;;
9848;SDS011;4963;51.444;6.528;2022-11-04T07:06:25;7.67;;;3.40;;
9848;SDS011;4963;51.444;6.528;2022-11-04T07:08:55;9.17;;;3.30;;
9848;SDS011;4963;51.444;6.528;2022-11-04T07:11:23;4.50;;;2.67;;
9848;SDS011;4963;51.444;6.528;2022-11-04T07:13:50;8.33;;;3.10;;
9848;SDS011;4963;51.444;6.528;2022-11-04T07:16:17;5.50;;;3.00;;
9848;SDS011;4963;51.444;6.528;2022-11-04T07:18:44;8.80;;;3.70;;
9848;SDS011;4963;51.444;6.528;2022-11-04T07:21:13;9.37;;;3.90;;
9848;SDS011;4963;51.444;6.528;2022-11-04T07:23:41;6.30;;;2.90;;
9848;SDS011;4963;51.444;6.528;2022-11-04T07:26:09;6.63;;;3.30;;
9848;SDS011;4963;51.444;6.528;2022-11-04T07:28:37;8.60;;;3.40;;
9848;SDS011;4963;51.444;6.528;2022-11-04T07:31:05;4.77;;;3.00;;
9848;SDS011;4963;51.444;6.528;2022-11-04T07:33:33;8.70;;;3.10;;
9848;SDS011;4963;51.444;6.528;2022-11-04T07:36:02;12.27;;;3.87;;
9848;SDS011;4963;51.444;6.528;2022-11-04T07:38:30;4.43;;;3.10;;
9848;SDS011;4963;51.444;6.528;2022-11-04T07:40:58;14.87;;;3.70;;
9848;SDS011;4963;51.444;6.528;2022-11-04T07:43:26;7.53;;;2.90;;
9848;SDS011;4963;51.444;6.528;2022-11-04T07:45:57;7.73;;;2.93;;
9848;SDS011;4963;51.444;6.528;2022-11-04T07:48:25;7.10;;;3.43;;
9848;SDS011;4963;51.444;6.528;2022-11-04T07:50:53;5.03;;;3.30;;
9848;SDS011;4963;51.444;6.528;2022-11-04T07:53:20;10.70;;;3.00;;
9848;SDS011;4963;51.444;6.528;2022-11-04T07:55:47;4.53;;;2.90;;
9848;SDS011;4963;51.444;6.528;2022-11-04T07:58:16;6.60;;;2.97;;
9848;SDS011;4963;51.444;6.528;2022-11-04T08:00:43;7.23;;;2.50;;
9848;SDS011;4963;51.444;6.528;2022-11-04T08:03:10;4.90;;;2.30;;
9848;SDS011;4963;51.444;6.528;2022-11-04T08:05:37;6.70;;;3.00;;
9848;SDS011;4963;51.444;6.528;2022-11-04T08:08:04;6.47;;;3.60;;
9848;SDS011;4963;51.444;6.528;2022-11-04T08:10:31;9.10;;;3.03;;
9848;SDS011;4963;51.444;6.528;2022-11-04T08:12:58;6.70;;;2.80;;
9848;SDS011;4963;51.444;6.528;2022-11-04T08:15:27;7.67;;;3.30;;
9848;SDS011;4963;51.444;6.528;2022-11-04T08:17:54;8.37;;;3.00;;
9848;SDS011;4963;51.444;6.528;2022-11-04T08:20:21;6.70;;;3.13;;
9848;SDS011;4963;51.444;6.528;2022-11-04T08:22:48;9.90;;;3.00;;
9848;SDS011;4963;51.444;6.528;2022-11-04T08:25:15;11.83;;;3.40;;
9848;SDS011;4963;51.444;6.528;2022-11-04T08:27:42;7.77;;;2.90;;
9848;SDS011;4963;51.444;6.528;2022-11-04T08:30:09;7.00;;;3.40;;
9848;SDS011;4963;51.444;6.528;2022-11-04T08:32:38;7.87;;;3.60;;
9848;SDS011;4963;51.444;6.528;2022-11-04T08:35:05;12.80;;;5.13;;
9848;SDS011;4963;51.444;6.528;2022-11-04T08:37:33;9.07;;;4.10;;
9848;SDS011;4963;51.444;6.528;2022-11-04T08:40:00;10.13;;;4.40;;
9848;SDS011;4963;51.444;6.528;2022-11-04T08:42:27;14.73;;;4.30;;
9848;SDS011;4963;51.444;6.528;2022-11-04T08:44:54;6.07;;;3.27;;
9848;SDS011;4963;51.444;6.528;2022-11-04T08:47:21;11.03;;;3.60;;
9848;SDS011;4963;51.444;6.528;2022-11-04T08:49:49;11.47;;;4.77;;
9848;SDS011;4963;51.444;6.528;2022-11-04T08:52:16;5.73;;;2.83;;
9848;SDS011;4963;51.444;6.528;2022-11-04T08:54:43;6.30;;;2.90;;
9848;SDS011;4963;51.444;6.528;2022-11-04T08:57:10;8.23;;;3.33;;
9848;SDS011;4963;51.444;6.528;2022-11-04T08:59:36;8.57;;;3.03;;
9848;SDS011;4963;51.444;6.528;2022-11-04T09:02:03;9.60;;;3.70;;
9848;SDS011;4963;51.444;6.528;2022-11-04T09:04:30;6.67;;;2.70;;
9848;SDS011;4963;51.444;6.528;2022-11-04T09:07:00;7.20;;;3.17;;
9848;SDS011;4963;51.444;6.528;2022-11-04T09:09:30;6.67;;;2.97;;
9848;SDS011;4963;51.444;6.528;2022-11-04T09:11:57;11.63;;;3.40;;
9848;SDS011;4963;51.444;6.528;2022-11-04T09:14:24;9.37;;;3.17;;
9848;SDS011;4963;51.444;6.528;2022-11-04T09:16:51;10.37;;;3.13;;
9848;SDS011;4963;51.444;6.528;2022-11-04T09:19:19;8.03;;;3.43;;
9848;SDS011;4963;51.444;6.528;2022-11-04T09:21:45;8.83;;;3.33;;
9848;SDS011;4963;51.444;6.528;2022-11-04T09:24:13;7.60;;;3.40;;
9848;SDS011;4963;51.444;6.528;2022-11-04T09:26:40;9.83;;;3.43;;
9848;SDS011;4963;51.444;6.528;2022-11-04T09:29:08;7.03;;;3.23;;
9848;SDS011;4963;51.444;6.528;2022-11-04T09:31:35;11.90;;;3.67;;
9848;SDS011;4963;51.444;6.528;2022-11-04T09:34:03;8.03;;;3.40;;
9848;SDS011;4963;51.444;6.528;2022-11-04T09:36:30;8.77;;;3.67;;
9848;SDS011;4963;51.444;6.528;2022-11-04T09:38:57;7.57;;;2.97;;
9848;SDS011;4963;51.444;6.528;2022-11-04T09:41:35;9.43;;;3.73;;
9848;SDS011;4963;51.444;6.528;2022-11-04T09:44:13;8.37;;;3.70;;
9848;SDS011;4963;51.444;6.528;2022-11-04T09:46:50;9.17;;;3.43;;
9848;SDS011;4963;51.444;6.528;2022-11-04T09:49:20;8.80;;;3.43;;
9848;SDS011;4963;51.444;6.528;2022-11-04T09:51:48;8.33;;;3.37;;
9848;SDS011;4963;51.444;6.528;2022-11-04T09:54:17;7.97;;;3.33;;
9848;SDS011;4963;51.444;6.528;2022-11-04T09:56:49;8.10;;;2.87;;
9848;SDS011;4963;51.444;6.528;2022-11-04T09:59:21;10.73;;;3.73;;
9848;SDS011;4963;51.444;6.528;2022-11-04T10:02:00;9.63;;;3.10;;
9848;SDS011;4963;51.444;6.528;2022-11-04T10:04:50;7.37;;;3.43;;
9848;SDS011;4963;51.444;6.528;2022-11-04T10:07:26;7.77;;;3.13;;
9848;SDS011;4963;51.444;6.528;2022-11-04T10:10:04;6.90;;;2.87;;
9848;SDS011;4963;51.444;6.528;2022-11-04T10:12:44;7.97;;;3.00;;
9848;SDS011;4963;51.444;6.528;2022-11-04T10:15:33;6.87;;;3.30;;
9848;SDS011;4963;51.444;6.528;2022-11-04T10:18:12;10.30;;;3.40;;
9848;SDS011;4963;51.444;6.528;2022-11-04T10:20:51;7.87;;;2.97;;
9848;SDS011;4963;51.444;6.528;2022-11-04T10:23:30;10.07;;;3.47;;
9848;SDS011;4963;51.444;6.528;2022-11-04T10:26:00;5.97;;;2.97;;
9848;SDS011;4963;51.444;6.528;2022-11-04T10:28:37;10.33;;;3.00;;
9848;SDS011;4963;51.444;6.528;2022-11-04T10:31:06;5.83;;;2.90;;
9848;SDS011;4963;51.444;6.528;2022-11-04T10:33:36;6.27;;;3.13;;
9848;SDS011;4963;51.444;6.528;2022-11-04T10:36:06;6.20;;;2.80;;
9848;SDS011;4963;51.444;6.528;2022-11-04T10:38:35;6.60;;;2.80;;
9848;SDS011;4963;51.444;6.528;2022-11-04T10:41:11;6.37;;;2.73;;
9848;SDS011;4963;51.444;6.528;2022-11-04T10:43:52;9.07;;;3.40;;
9848;SDS011;4963;51.444;6.528;2022-11-04T10:46:35;12.27;;;3.17;;
9848;SDS011;4963;51.444;6.528;2022-11-04T10:52:18;5.17;;;3.00;;
9848;SDS011;4963;51.444;6.528;2022-11-04T10:54:46;7.63;;;3.10;;
9848;SDS011;4963;51.444;6.528;2022-11-04T10:57:15;6.87;;;2.63;;
9848;SDS011;4963;51.444;6.528;2022-11-04T10:59:49;9.13;;;2.50;;
9848;SDS011;4963;51.444;6.528;2022-11-04T11:02:18;4.67;;;2.10;;
9848;SDS011;4963;51.444;6.528;2022-11-04T11:05:22;5.50;;;3.00;;
9848;SDS011;4963;51.444;6.528;2022-11-04T11:07:50;6.77;;;2.70;;
9848;SDS011;4963;51.444;6.528;2022-11-04T11:10:19;6.00;;;2.70;;
9848;SDS011;4963;51.444;6.528;2022-11-04T11:12:52;6.67;;;2.33;;
9848;SDS011;4963;51.444;6.528;2022-11-04T11:15:26;9.67;;;2.70;;
9848;SDS011;4963;51.444;6.528;2022-11-04T11:17:59;7.27;;;2.63;;
9848;SDS011;4963;51.444;6.528;2022-11-04T11:20:39;9.90;;;2.70;;
9848;SDS011;4963;51.444;6.528;2022-11-04T11:23:08;6.47;;;2.30;;
9848;SDS011;4963;51.444;6.528;2022-11-04T11:25:59;8.00;;;2.53;;
9848;SDS011;4963;51.444;6.528;2022-11-04T11:28:26;11.40;;;2.63;;
9848;SDS011;4963;51.444;6.528;2022-11-04T11:30:56;5.83;;;2.20;;
9848;SDS011;4963;51.444;6.528;2022-11-04T11:33:28;6.17;;;2.00;;
9848;SDS011;4963;51.444;6.528;2022-11-04T11:35:57;6.67;;;1.77;;
9848;SDS011;4963;51.444;6.528;2022-11-04T11:38:28;4.93;;;2.00;;
9848;SDS011;4963;51.444;6.528;2022-11-04T11:41:02;10.90;;;2.50;;
9848;SDS011;4963;51.444;6.528;2022-11-04T11:43:32;9.57;;;2.30;;
9848;SDS011;4963;51.444;6.528;2022-11-04T11:46:03;8.87;;;2.77;;
9848;SDS011;4963;51.444;6.528;2022-11-04T11:48:31;7.50;;;3.07;;
9848;SDS011;4963;51.444;6.528;2022-11-04T11:51:04;9.60;;;2.67;;
9848;SDS011;4963;51.444;6.528;2022-11-04T11:53:32;6.97;;;2.53;;
9848;SDS011;4963;51.444;6.528;2022-11-04T11:56:06;6.80;;;2.50;;
9848;SDS011;4963;51.444;6.528;2022-11-04T11:58:40;7.33;;;2.43;;
9848;SDS011;4963;51.444;6.528;2022-11-04T12:01:14;8.17;;;2.30;;
9848;SDS011;4963;51.444;6.528;2022-11-04T12:03:46;7.70;;;2.60;;
9848;SDS011;4963;51.444;6.528;2022-11-04T12:06:17;7.20;;;2.07;;
9848;SDS011;4963;51.444;6.528;2022-11-04T12:09:08;6.23;;;2.60;;
9848;SDS011;4963;51.444;6.528;2022-11-04T12:11:50;7.97;;;2.40;;
9848;SDS011;4963;51.444;6.528;2022-11-04T12:14:28;8.00;;;2.80;;
9848;SDS011;4963;51.444;6.528;2022-11-04T12:17:06;5.67;;;2.20;;
9848;SDS011;4963;51.444;6.528;2022-11-04T12:19:47;8.93;;;2.73;;
9848;SDS011;4963;51.444;6.528;2022-11-04T12:22:28;7.80;;;2.70;;
9848;SDS011;4963;51.444;6.528;2022-11-04T12:25:08;7.73;;;2.30;;
9848;SDS011;4963;51.444;6.528;2022-11-04T12:27:44;9.00;;;3.03;;
9848;SDS011;4963;51.444;6.528;2022-11-04T12:30:17;9.10;;;2.57;;
9848;SDS011;4963;51.444;6.528;2022-11-04T12:32:50;7.50;;;2.33;;
9848;SDS011;4963;51.444;6.528;2022-11-04T12:38:28;5.80;;;2.50;;
9848;SDS011;4963;51.444;6.528;2022-11-04T12:41:14;7.73;;;2.50;;
9848;SDS011;4963;51.444;6.528;2022-11-04T12:43:49;9.00;;;2.83;;
9848;SDS011;4963;51.444;6.528;2022-11-04T12:46:26;9.23;;;2.53;;
9848;SDS011;4963;51.444;6.528;2022-11-04T12:52:10;8.70;;;2.33;;
9848;SDS011;4963;51.444;6.528;2022-11-04T12:54:52;9.40;;;2.57;;
9848;SDS011;4963;51.444;6.528;2022-11-04T12:57:38;6.77;;;2.40;;
9848;SDS011;4963;51.444;6.528;2022-11-04T13:00:16;6.77;;;2.60;;
9848;SDS011;4963;51.444;6.528;2022-11-04T13:02:47;7.27;;;2.23;;
9848;SDS011;4963;51.444;6.528;2022-11-04T13:08:09;12.63;;;3.80;;
9848;SDS011;4963;51.444;6.528;2022-11-04T13:10:45;10.00;;;2.50;;
9848;SDS011;4963;51.444;6.528;2022-11-04T13:13:17;8.43;;;2.50;;
9848;SDS011;4963;51.444;6.528;2022-11-04T13:15:48;8.53;;;2.33;;
9848;SDS011;4963;51.444;6.528;2022-11-04T13:18:19;9.47;;;2.67;;
9848;SDS011;4963;51.444;6.528;2022-11-04T13:20:51;5.77;;;2.40;;
9848;SDS011;4963;51.444;6.528;2022-11-04T13:23:25;5.77;;;2.23;;
9848;SDS011;4963;51.444;6.528;2022-11-04T13:25:55;9.63;;;2.77;;
9848;SDS011;4963;51.444;6.528;2022-11-04T13:28:23;7.80;;;2.90;;
9848;SDS011;4963;51.444;6.528;2022-11-04T13:30:53;4.40;;;2.40;;
9848;SDS011;4963;51.444;6.528;2022-11-04T13:33:28;6.03;;;2.40;;
9848;SDS011;4963;51.444;6.528;2022-11-04T13:36:04;5.90;;;2.30;;
9848;SDS011;4963;51.444;6.528;2022-11-04T13:38:40;9.33;;;2.50;;
9848;SDS011;4963;51.444;6.528;2022-11-04T13:41:17;12.27;;;3.40;;
9848;SDS011;4963;51.444;6.528;2022-11-04T13:44:11;5.83;;;2.30;;
9848;SDS011;4963;51.444;6.528;2022-11-04T13:46:44;6.10;;;3.10;;
9848;SDS011;4963;51.444;6.528;2022-11-04T13:49:16;7.53;;;3.00;;
9848;SDS011;4963;51.444;6.528;2022-11-04T13:51:59;6.60;;;2.40;;
9848;SDS011;4963;51.444;6.528;2022-11-04T13:54:32;5.87;;;3.00;;
9848;SDS011;4963;51.444;6.528;2022-11-04T13:57:08;5.90;;;2.83;;
9848;SDS011;4963;51.444;6.528;2022-11-04T13:59:40;12.03;;;2.87;;
9848;SDS011;4963;51.444;6.528;2022-11-04T14:02:31;7.93;;;2.87;;
9848;SDS011;4963;51.444;6.528;2022-11-04T14:08:17;10.97;;;3.43;;
9848;SDS011;4963;51.444;6.528;2022-11-04T14:10:45;9.97;;;2.67;;
9848;SDS011;4963;51.444;6.528;2022-11-04T14:13:43;4.90;;;2.67;;
9848;SDS011;4963;51.444;6.528;2022-11-04T14:16:43;5.43;;;3.00;;
9848;SDS011;4963;51.444;6.528;2022-11-04T14:22:19;7.00;;;2.87;;
9848;SDS011;4963;51.444;6.528;2022-11-04T14:24:54;6.07;;;2.80;;
9848;SDS011;4963;51.444;6.528;2022-11-04T14:27:23;6.83;;;2.93;;
9848;SDS011;4963;51.444;6.528;2022-11-04T14:29:55;7.30;;;2.83;;
9848;SDS011;4963;51.444;6.528;2022-11-04T14:32:24;6.70;;;3.17;;
9848;SDS011;4963;51.444;6.528;2022-11-04T14:34:57;7.37;;;3.17;;
9848;SDS011;4963;51.444;6.528;2022-11-04T14:37:28;7.00;;;3.23;;
9848;SDS011;4963;51.444;6.528;2022-11-04T14:40:00;7.03;;;3.20;;
9848;SDS011;4963;51.444;6.528;2022-11-04T14:42:47;7.67;;;3.37;;
9848;SDS011;4963;51.444;6.528;2022-11-04T14:45:16;6.47;;;2.83;;
9848;SDS011;4963;51.444;6.528;2022-11-04T14:47:50;7.57;;;3.40;;
9848;SDS011;4963;51.444;6.528;2022-11-04T14:50:21;6.23;;;2.90;;
9848;SDS011;4963;51.444;6.528;2022-11-04T14:52:51;6.97;;;3.60;;
9848;SDS011;4963;51.444;6.528;2022-11-04T14:55:23;8.73;;;2.90;;
9848;SDS011;4963;51.444;6.528;2022-11-04T14:57:52;3.53;;;2.63;;
9848;SDS011;4963;51.444;6.528;2022-11-04T15:00:31;6.83;;;3.10;;
9848;SDS011;4963;51.444;6.528;2022-11-04T15:03:04;4.07;;;2.77;;
9848;SDS011;4963;51.444;6.528;2022-11-04T15:05:37;6.90;;;3.60;;
9848;SDS011;4963;51.444;6.528;2022-11-04T15:08:25;6.53;;;3.60;;
9848;SDS011;4963;51.444;6.528;2022-11-04T15:10:58;10.93;;;4.33;;
9848;SDS011;4963;51.444;6.528;2022-11-04T15:13:27;7.53;;;3.53;;
9848;SDS011;4963;51.444;6.528;2022-11-04T15:15:57;8.10;;;3.47;;
9848;SDS011;4963;51.444;6.528;2022-11-04T15:18:26;7.87;;;3.70;;
9848;SDS011;4963;51.444;6.528;2022-11-04T15:20:54;6.27;;;3.33;;
9848;SDS011;4963;51.444;6.528;2022-11-04T15:23:25;7.90;;;3.67;;
9848;SDS011;4963;51.444;6.528;2022-11-04T15:25:53;7.27;;;3.10;;
9848;SDS011;4963;51.444;6.528;2022-11-04T15:28:24;7.93;;;3.77;;
9848;SDS011;4963;51.444;6.528;2022-11-04T15:30:57;8.00;;;3.63;;
9848;SDS011;4963;51.444;6.528;2022-11-04T15:33:25;7.17;;;3.70;;
9848;SDS011;4963;51.444;6.528;2022-11-04T15:35:53;8.33;;;4.03;;
9848;SDS011;4963;51.444;6.528;2022-11-04T15:38:21;9.30;;;3.37;;
9848;SDS011;4963;51.444;6.528;2022-11-04T15:40:50;9.17;;;3.90;;
9848;SDS011;4963;51.444;6.528;2022-11-04T15:43:17;6.87;;;3.70;;
9848;SDS011;4963;51.444;6.528;2022-11-04T15:45:51;9.07;;;3.20;;
9848;SDS011;4963;51.444;6.528;2022-11-04T15:48:23;9.57;;;4.57;;
9848;SDS011;4963;51.444;6.528;2022-11-04T15:50:52;9.50;;;4.93;;
9848;SDS011;4963;51.444;6.528;2022-11-04T15:53:27;7.17;;;4.40;;
9848;SDS011;4963;51.444;6.528;2022-11-04T15:55:54;9.00;;;3.77;;
9848;SDS011;4963;51.444;6.528;2022-11-04T15:58:21;6.30;;;3.90;;
9848;SDS011;4963;51.444;6.528;2022-11-04T16:00:54;8.70;;;4.30;;
9848;SDS011;4963;51.444;6.528;2022-11-04T16:03:21;11.90;;;4.37;;